Time;durP1;ratioP1;P1;durP2;ratioP2;P2;SDS_P1;SDS_P2;PMS_P1;PMS_P2;Temp;Humidity;BMP_temperature;BMP_pressure;BME280_temperature;BME280_humidity;BME280_pressure;Samples;Min_cycle;Max_cycle;Signal;HPM_P1;HPM_P2
2023/04/27 00:01:01;;;;;;;5.3;3;;;;;;;8.72;82;937.4729;;;;
2023/04/27 00:03:27;;;;;;;6.9;3.6;;;;;;;8.69;82.37891;937.4548;;;;
2023/04/27 00:05:52;;;;;;;5.7;3.3;;;;;;;8.73;82.55664;937.423;;;;
2023/04/27 00:08:18;;;;;;;6.4;3.2;;;;;;;8.65;82.15625;937.406;;;;
2023/04/27 00:10:46;;;;;;;4.9;3;;;;;;;8.67;81.63672;937.411;;;;
2023/04/27 00:13:11;;;;;;;5.9;3.3;;;;;;;8.69;81.27832;937.3987;;;;
2023/04/27 00:15:41;;;;;;;4.8;3.1;;;;;;;8.71;80.80273;937.3901;;;;
2023/04/27 00:18:06;;;;;;;5.4;3.1;;;;;;;8.69;81.31055;937.3326;;;;
2023/04/27 00:20:32;;;;;;;5.7;3;;;;;;;8.73;81.6582;937.3309;;;;
2023/04/27 00:22:57;;;;;;;4.3;2.9;;;;;;;8.77;81.37109;937.3069;;;;
2023/04/27 00:25:24;;;;;;;3.7;2.5;;;;;;;8.63;82.02637;937.3183;;;;
2023/04/27 00:27:49;;;;;;;5;3;;;;;;;8.7;82.11914;937.255;;;;
2023/04/27 00:30:18;;;;;;;4.7;2.9;;;;;;;8.71;82.86035;937.2147;;;;
2023/04/27 00:32:51;;;;;;;4;3.2;;;;;;;8.67;82.38672;937.2339;;;;
2023/04/27 00:35:21;;;;;;;4.1;3;;;;;;;8.67;82.1709;937.2316;;;;
2023/04/27 00:37:46;;;;;;;4.2;2.8;;;;;;;8.67;82.14844;937.2213;;;;
2023/04/27 00:40:17;;;;;;;4.7;3.3;;;;;;;8.71;81.85938;937.198;;;;
2023/04/27 00:42:42;;;;;;;4.9;2.8;;;;;;;8.67;81.8418;937.2142;;;;
2023/04/27 00:45:14;;;;;;;4;3.1;;;;;;;8.67;81.55762;937.1475;;;;
2023/04/27 00:47:39;;;;;;;4.1;2.8;;;;;;;8.64;81.68652;937.1248;;;;
2023/04/27 00:50:12;;;;;;;3.5;2.7;;;;;;;8.63;81.94629;937.1239;;;;
2023/04/27 00:52:38;;;;;;;5;3.2;;;;;;;8.73;82.15918;937.1864;;;;
2023/04/27 00:55:06;;;;;;;3.5;2.8;;;;;;;8.75;82.33301;937.17;;;;
2023/04/27 00:57:31;;;;;;;5;3.2;;;;;;;8.74;82.24023;937.1937;;;;
2023/04/27 00:59:56;;;;;;;3.4;2.7;;;;;;;8.71;82.62012;937.1353;;;;
2023/04/27 01:02:21;;;;;;;3.9;2.8;;;;;;;8.69;83.12988;937.1152;;;;
2023/04/27 01:04:46;;;;;;;4.4;2.9;;;;;;;8.78;83.5332;937.1157;;;;
2023/04/27 01:09:37;;;;;;;3.8;2.7;;;;;;;8.61;84.27344;937.1014;;;;
2023/04/27 01:12:04;;;;;;;3.2;2.7;;;;;;;8.74;84.16309;937.1223;;;;
2023/04/27 01:14:29;;;;;;;4.6;2.7;;;;;;;8.87;83.5625;937.1362;;;;
2023/04/27 01:16:58;;;;;;;4.3;3;;;;;;;8.91;83.06934;937.1844;;;;
2023/04/27 01:19:23;;;;;;;3.1;2.7;;;;;;;8.83;82.96191;937.1484;;;;
2023/04/27 01:21:50;;;;;;;4.1;2.5;;;;;;;8.88;82.7002;937.1356;;;;
2023/04/27 01:24:15;;;;;;;3.9;2.8;;;;;;;8.86;81.67285;937.1926;;;;
2023/04/27 01:26:41;;;;;;;4.3;2.6;;;;;;;8.94;81.79102;937.1969;;;;
2023/04/27 01:29:06;;;;;;;5.5;3.1;;;;;;;8.87;81.93652;937.1498;;;;
2023/04/27 01:31:32;;;;;;;4.7;3;;;;;;;8.85;82.28516;937.1487;;;;
2023/04/27 01:33:57;;;;;;;3.8;3.2;;;;;;;8.83;82.90527;937.1231;;;;
2023/04/27 01:36:26;;;;;;;2.9;2.6;;;;;;;8.88;81.84668;937.1785;;;;
2023/04/27 01:38:50;;;;;;;4;3;;;;;;;8.77;82.55176;937.1378;;;;
2023/04/27 01:41:16;;;;;;;5;3;;;;;;;8.76;82.77832;937.1369;;;;
2023/04/27 01:43:42;;;;;;;4.3;2.8;;;;;;;8.74;83.10449;937.1325;;;;
2023/04/27 01:46:10;;;;;;;2.9;2.5;;;;;;;8.73;83.43262;937.1603;;;;
2023/04/27 01:48:35;;;;;;;4.6;2.8;;;;;;;8.73;83.45508;937.1555;;;;
2023/04/27 01:51:00;;;;;;;7.7;3.6;;;;;;;8.8;83.40039;937.2198;;;;
2023/04/27 01:53:25;;;;;;;3.9;2.9;;;;;;;8.89;82.92773;937.2326;;;;
2023/04/27 01:55:53;;;;;;;4.1;2.8;;;;;;;8.93;82.62891;937.3015;;;;
2023/04/27 01:58:19;;;;;;;4.1;2.8;;;;;;;8.9;82.94238;937.2645;;;;
2023/04/27 02:00:44;;;;;;;3.9;3.2;;;;;;;8.96;82.98633;937.2661;;;;
2023/04/27 02:03:09;;;;;;;4.4;2.9;;;;;;;9.02;83.11426;937.3292;;;;
2023/04/27 02:05:36;;;;;;;4.4;2.7;;;;;;;9.06;83.15527;937.3774;;;;
2023/04/27 02:08:02;;;;;;;4.8;2.8;;;;;;;9.05;82.92578;937.3392;;;;
2023/04/27 02:10:30;;;;;;;5.4;3.1;;;;;;;8.95;83.43066;937.2772;;;;
2023/04/27 02:12:58;;;;;;;5.6;2.8;;;;;;;8.85;84.09375;937.2869;;;;
2023/04/27 02:15:23;;;;;;;6.1;3;;;;;;;8.77;84.81543;937.3077;;;;
2023/04/27 02:17:51;;;;;;;4.6;3.1;;;;;;;8.65;85.39453;937.2686;;;;
2023/04/27 02:20:16;;;;;;;5.1;2.9;;;;;;;8.61;86.01074;937.2835;;;;
2023/04/27 02:22:43;;;;;;;4.9;3;;;;;;;8.52;86.30078;937.3013;;;;
2023/04/27 02:25:07;;;;;;;3.9;2.7;;;;;;;8.44;86.34375;937.3858;;;;
2023/04/27 02:27:34;;;;;;;3.9;3.2;;;;;;;8.51;86.90332;937.4345;;;;
2023/04/27 02:29:59;;;;;;;3.6;2.8;;;;;;;8.5;86.90918;937.4398;;;;
2023/04/27 02:32:31;;;;;;;6.1;3.1;;;;;;;8.54;86.73633;937.4849;;;;
2023/04/27 02:34:56;;;;;;;5;3.2;;;;;;;8.65;87.06543;937.5369;;;;
2023/04/27 02:37:21;;;;;;;4.5;3.1;;;;;;;8.62;87.26465;937.615;;;;
2023/04/27 02:39:50;;;;;;;3.7;2.9;;;;;;;8.4;88.99316;937.6553;;;;
2023/04/27 02:42:15;;;;;;;5.1;3;;;;;;;8.47;89.16699;937.6878;;;;
2023/04/27 02:44:44;;;;;;;4.9;3;;;;;;;8.56;87.36523;937.6812;;;;
2023/04/27 02:47:09;;;;;;;3.3;2.8;;;;;;;8.54;87.62305;937.707;;;;
2023/04/27 02:49:36;;;;;;;3.9;3.1;;;;;;;8.56;89.08301;937.7447;;;;
2023/04/27 02:52:01;;;;;;;4.4;3;;;;;;;8.46;89.1748;937.7637;;;;
2023/04/27 02:54:27;;;;;;;3.3;3;;;;;;;8.39;89.84375;937.8521;;;;
2023/04/27 02:56:52;;;;;;;5;2.9;;;;;;;8.35;90.35645;937.7774;;;;
2023/04/27 02:59:18;;;;;;;5.2;3.6;;;;;;;8.34;91.04785;937.8005;;;;
2023/04/27 03:05:24;;;;;;;4.4;3.2;;;;;;;8.25;92.5166;937.7731;;;;
2023/04/27 03:07:53;;;;;;;4.6;3.4;;;;;;;8.3;92.77539;937.7486;;;;
2023/04/27 03:10:23;;;;;;;6.2;3.9;;;;;;;8.11;93.14551;937.7847;;;;
2023/04/27 03:12:48;;;;;;;8.9;5.2;;;;;;;8.07;93.33984;937.7324;;;;
2023/04/27 03:15:18;;;;;;;5.7;4.2;;;;;;;8.16;93.65723;937.6642;;;;
2023/04/27 03:17:46;;;;;;;5;3.8;;;;;;;8.23;93.60254;937.6555;;;;
2023/04/27 03:20:17;;;;;;;4.3;3.3;;;;;;;8.26;93.41699;937.7385;;;;
2023/04/27 03:23:39;;;;;;;4.4;3.5;;;;;;;8.31;93.35938;937.6479;;;;
2023/04/27 03:26:04;;;;;;;6.8;4.3;;;;;;;8.4;93.17383;937.7744;;;;
2023/04/27 03:28:29;;;;;;;6.1;4;;;;;;;8.34;92.79688;937.802;;;;
2023/04/27 03:30:54;;;;;;;5.4;3.7;;;;;;;8.35;92.85547;937.7355;;;;
2023/04/27 03:33:23;;;;;;;9.5;4.4;;;;;;;8.24;92.34375;937.8428;;;;
2023/04/27 03:35:48;;;;;;;6.2;4;;;;;;;8.31;92.88184;937.8257;;;;
2023/04/27 03:38:15;;;;;;;6.7;4.7;;;;;;;8.24;92.86621;937.8142;;;;
2023/04/27 03:40:41;;;;;;;6.7;4.3;;;;;;;8.32;93.41797;937.9075;;;;
2023/04/27 03:43:10;;;;;;;5;3.7;;;;;;;8.41;93.84473;937.7967;;;;
2023/04/27 03:45:35;;;;;;;5.6;3.8;;;;;;;8.37;93.87012;937.9174;;;;
2023/04/27 03:48:03;;;;;;;6;3.6;;;;;;;8.35;93.73047;937.9441;;;;
2023/04/27 03:50:28;;;;;;;4.9;4;;;;;;;8.33;93.63574;937.9339;;;;
2023/04/27 03:52:54;;;;;;;4.3;3.6;;;;;;;8.39;93.59277;937.9155;;;;
2023/04/27 03:55:19;;;;;;;4.8;4.1;;;;;;;8.46;94.02637;937.9581;;;;
2023/04/27 03:58:53;;;;;;;7.2;4.1;;;;;;;8.5;94.44531;938.0334;;;;
2023/04/27 04:02:33;;;;;;;6.6;3.9;;;;;;;8.37;94.6543;938.092;;;;
2023/04/27 04:05:01;;;;;;;6;3.9;;;;;;;8.42;94.58691;938.0955;;;;
2023/04/27 04:07:26;;;;;;;7.4;4.4;;;;;;;8.46;94.49219;938.1691;;;;
2023/04/27 04:09:51;;;;;;;4.9;3.6;;;;;;;8.5;93.87695;938.1676;;;;
2023/04/27 04:12:19;;;;;;;4.5;3.8;;;;;;;8.54;93.38672;938.1436;;;;
2023/04/27 04:14:47;;;;;;;6.7;3.7;;;;;;;8.57;92.37012;938.1989;;;;
2023/04/27 04:17:09;;;;;;;5.7;3.8;;;;;;;8.55;91.88672;938.2771;;;;
2023/04/27 04:19:40;;;;;;;5.9;3.8;;;;;;;8.59;91.7832;938.3024;;;;
2023/04/27 04:22:05;;;;;;;3.9;3.5;;;;;;;8.65;91.19238;938.383;;;;
2023/04/27 04:24:31;;;;;;;5.4;3.5;;;;;;;8.65;91.18262;938.4188;;;;
2023/04/27 04:26:57;;;;;;;5.2;3.6;;;;;;;8.64;91.85156;938.5162;;;;
2023/04/27 04:31:51;;;;;;;4.2;3.3;;;;;;;8.19;95.35254;938.534;;;;
2023/04/27 04:34:20;;;;;;;5.9;4.1;;;;;;;8.27;95.35938;938.5461;;;;
2023/04/27 04:36:50;;;;;;;5.7;4;;;;;;;8.36;95.08594;938.5592;;;;
2023/04/27 04:39:13;;;;;;;4.3;3.6;;;;;;;8.44;95.04492;938.5474;;;;
2023/04/27 04:41:41;;;;;;;5.1;3.7;;;;;;;8.47;94.63086;938.5232;;;;
2023/04/27 04:44:06;;;;;;;5.4;4.4;;;;;;;8.43;94.98633;938.5297;;;;
2023/04/27 04:46:36;;;;;;;6.5;4.4;;;;;;;8.41;95.32129;938.5678;;;;
2023/04/27 04:49:01;;;;;;;6.9;4.1;;;;;;;8.42;95.5752;938.5375;;;;
2023/04/27 04:51:27;;;;;;;5.4;4.5;;;;;;;8.4;96.27539;938.5606;;;;
2023/04/27 04:54:00;;;;;;;5.1;3.6;;;;;;;8.34;95.31836;938.581;;;;
2023/04/27 04:57:25;;;;;;;6.7;4;;;;;;;8.28;95.66992;938.5828;;;;
2023/04/27 04:59:53;;;;;;;5.3;4.1;;;;;;;8.32;96.07617;938.6644;;;;
2023/04/27 05:03:13;;;;;;;5.2;4.6;;;;;;;8.36;96.0498;938.6788;;;;
2023/04/27 05:05:41;;;;;;;6.8;4.3;;;;;;;8.44;96.27441;938.6672;;;;
2023/04/27 05:08:06;;;;;;;5.8;4.1;;;;;;;8.45;96.34277;938.7269;;;;
2023/04/27 05:10:35;;;;;;;5.5;4.8;;;;;;;8.37;96.48535;938.7816;;;;
2023/04/27 05:13:37;;;;;;;6;5.3;;;;;;;8.37;96.82422;938.7584;;;;
2023/04/27 05:16:09;;;;;;;7.5;5.4;;;;;;;8.48;96.92773;938.8201;;;;
2023/04/27 05:18:38;;;;;;;8.1;4.3;;;;;;;8.45;96.20801;938.8348;;;;
2023/04/27 05:21:03;;;;;;;7.2;4.3;;;;;;;8.38;95.77148;938.8618;;;;
2023/04/27 05:23:31;;;;;;;5.6;4.3;;;;;;;8.34;96.25;938.8222;;;;
2023/04/27 05:25:56;;;;;;;6.9;4.5;;;;;;;8.39;96.6709;938.9127;;;;
2023/04/27 05:28:21;;;;;;;6.8;4.4;;;;;;;8.37;96.49512;938.9441;;;;
2023/04/27 05:30:51;;;;;;;7.2;4.5;;;;;;;8.37;96.63086;938.9853;;;;
2023/04/27 05:33:16;;;;;;;6.9;4.7;;;;;;;8.53;96.48535;938.9592;;;;
2023/04/27 05:35:45;;;;;;;8.2;5.2;;;;;;;8.52;95.22266;938.9526;;;;
2023/04/27 05:38:10;;;;;;;7;4.4;;;;;;;8.45;94.37695;938.9339;;;;
2023/04/27 05:40:35;;;;;;;6.4;4.5;;;;;;;8.43;94.71387;938.8741;;;;
2023/04/27 05:43:04;;;;;;;7;4.4;;;;;;;8.46;95.46973;938.873;;;;
2023/04/27 05:45:25;;;;;;;8.5;5.1;;;;;;;8.53;95.74707;938.8244;;;;
2023/04/27 05:47:52;;;;;;;5.1;4.2;;;;;;;8.46;95.80078;938.9175;;;;
2023/04/27 05:50:17;;;;;;;6.3;4.6;;;;;;;8.55;96.20605;938.9128;;;;
2023/04/27 05:53:25;;;;;;;7;5.4;;;;;;;8.49;95.65918;938.8848;;;;
2023/04/27 05:55:53;;;;;;;6.6;5.7;;;;;;;8.64;95.49805;938.9059;;;;
2023/04/27 05:58:18;;;;;;;8.3;5.2;;;;;;;8.75;95.53418;938.8895;;;;
2023/04/27 06:00:43;;;;;;;7.7;4.8;;;;;;;8.73;94.6543;938.9185;;;;
2023/04/27 06:03:12;;;;;;;6.5;4.5;;;;;;;8.71;94.06836;938.9197;;;;
2023/04/27 06:05:37;;;;;;;7.1;5.1;;;;;;;8.73;94.9502;938.882;;;;
2023/04/27 06:08:06;;;;;;;6.5;4.4;;;;;;;8.76;94.7627;938.9691;;;;
2023/04/27 06:10:32;;;;;;;7.8;5.1;;;;;;;8.77;94.8457;938.9406;;;;
2023/04/27 06:13:00;;;;;;;8.6;4.8;;;;;;;8.77;95.6875;938.9113;;;;
2023/04/27 06:15:25;;;;;;;6.4;4.4;;;;;;;8.85;95.44434;938.9067;;;;
2023/04/27 06:17:53;;;;;;;5;4.3;;;;;;;8.85;95.02344;938.9734;;;;
2023/04/27 06:20:18;;;;;;;5.2;4;;;;;;;8.9;91.55273;938.9432;;;;
2023/04/27 06:22:47;;;;;;;4.5;4.1;;;;;;;8.98;90.93262;938.9897;;;;
2023/04/27 06:25:13;;;;;;;5.7;4.7;;;;;;;9.13;92.18262;938.9575;;;;
2023/04/27 06:27:41;;;;;;;6.6;4.3;;;;;;;9.06;93.33984;938.8969;;;;
2023/04/27 06:30:06;;;;;;;5.3;4.2;;;;;;;9.08;93.44629;938.9464;;;;
2023/04/27 06:32:32;;;;;;;6.1;3.9;;;;;;;9.08;92.29688;938.9941;;;;
2023/04/27 06:34:59;;;;;;;4.3;3.7;;;;;;;8.94;92.00391;939.0018;;;;
2023/04/27 06:37:25;;;;;;;5.6;4.1;;;;;;;8.87;94.16309;938.9785;;;;
2023/04/27 06:39:56;;;;;;;4.7;3.7;;;;;;;8.83;94.30078;939.019;;;;
2023/04/27 06:42:28;;;;;;;5.6;3.9;;;;;;;8.94;93.83496;938.986;;;;
2023/04/27 06:44:59;;;;;;;9.8;6;;;;;;;9.07;92.1582;939.0186;;;;
2023/04/27 06:47:23;;;;;;;15.6;8.4;;;;;;;9.13;92.99121;938.9758;;;;
2023/04/27 06:49:49;;;;;;;5.2;4.2;;;;;;;8.97;93.07129;938.9658;;;;
2023/04/27 06:52:14;;;;;;;8.1;3.9;;;;;;;9.06;92.17871;939.0105;;;;
2023/04/27 06:54:41;;;;;;;5.3;4.1;;;;;;;9.19;90.73535;939.0672;;;;
2023/04/27 06:57:06;;;;;;;5.8;3.8;;;;;;;9.13;91.35254;939.0154;;;;
2023/04/27 06:59:32;;;;;;;5.3;3.9;;;;;;;9.2;91.65039;939.0292;;;;
2023/04/27 07:01:57;;;;;;;6.7;4.1;;;;;;;9.13;90.70313;939.0544;;;;
2023/04/27 07:04:24;;;;;;;5.3;4.4;;;;;;;9.11;90.26563;939.1097;;;;
2023/04/27 07:06:50;;;;;;;5.7;4.5;;;;;;;9.05;90.68652;939.1111;;;;
2023/04/27 07:09:16;;;;;;;5.8;4.6;;;;;;;9.08;91.39746;939.0925;;;;
2023/04/27 07:11:41;;;;;;;6.8;4.7;;;;;;;9.07;92.38574;939.1209;;;;
2023/04/27 07:14:06;;;;;;;5.9;3.7;;;;;;;9.09;91.8418;939.1426;;;;
2023/04/27 07:16:31;;;;;;;5.3;3.9;;;;;;;9.06;92.8252;939.1033;;;;
2023/04/27 07:19:01;;;;;;;5.1;3.6;;;;;;;9.18;91.20215;939.1298;;;;
2023/04/27 07:21:32;;;;;;;6.5;4;;;;;;;9.2;91.44727;939.1119;;;;
2023/04/27 07:24:02;;;;;;;6.3;4.1;;;;;;;9.29;90.96387;939.0859;;;;
2023/04/27 07:26:27;;;;;;;4.5;3.9;;;;;;;9.36;91.19531;939.0901;;;;
2023/04/27 07:28:53;;;;;;;4.1;3.7;;;;;;;9.31;91.43555;939.0916;;;;
2023/04/27 07:31:18;;;;;;;7.5;4.3;;;;;;;9.5;90.83691;939.0591;;;;
2023/04/27 07:33:45;;;;;;;6.8;3.4;;;;;;;9.48;89.23828;939.0404;;;;
2023/04/27 07:36:09;;;;;;;4.5;3.8;;;;;;;9.35;90.56641;939.0804;;;;
2023/04/27 07:38:38;;;;;;;5.1;3.8;;;;;;;9.41;90.85352;939.0204;;;;
2023/04/27 07:41:04;;;;;;;6.5;3.8;;;;;;;9.56;90.71484;939.0544;;;;
2023/04/27 07:47:16;;;;;;;5.1;3.9;;;;;;;9.6;89.27539;939.0383;;;;
2023/04/27 07:49:40;;;;;;;3.9;3.5;;;;;;;9.68;89.30371;939.0842;;;;
2023/04/27 07:52:07;;;;;;;3.9;3.1;;;;;;;9.58;88.83887;939.0133;;;;
2023/04/27 07:54:55;;;;;;;5.6;3.4;;;;;;;9.67;89.35938;939.0419;;;;
2023/04/27 07:57:27;;;;;;;4.7;3.5;;;;;;;9.61;88.92383;939.0753;;;;
2023/04/27 07:59:56;;;;;;;5.1;3.3;;;;;;;9.46;88.82422;939.1006;;;;
2023/04/27 08:02:25;;;;;;;4.4;3.3;;;;;;;9.37;87.97266;939.1061;;;;
2023/04/27 08:04:50;;;;;;;5.1;4;;;;;;;9.38;90.42676;939.1492;;;;
2023/04/27 08:07:18;;;;;;;4.3;3.9;;;;;;;9.4;90.30469;939.1558;;;;
2023/04/27 08:09:42;;;;;;;4.9;4.3;;;;;;;9.4;89.84766;939.2019;;;;
2023/04/27 08:12:12;;;;;;;5.5;3.8;;;;;;;9.28;90.99805;939.158;;;;
2023/04/27 08:14:37;;;;;;;5;3.8;;;;;;;9.37;90.18359;939.2349;;;;
2023/04/27 08:17:06;;;;;;;5;4.1;;;;;;;9.43;89.58398;939.1622;;;;
2023/04/27 08:19:31;;;;;;;5.3;4.5;;;;;;;9.51;90.80566;939.1364;;;;
2023/04/27 08:22:00;;;;;;;4.6;4.1;;;;;;;9.62;90.13379;939.1573;;;;
2023/04/27 08:24:41;;;;;;;6.9;4.2;;;;;;;9.52;90.20215;939.13;;;;
2023/04/27 08:27:10;;;;;;;6;3.7;;;;;;;10.07;89.06445;939.1448;;;;
2023/04/27 08:32:00;;;;;;;5.8;4.1;;;;;;;10.53;86.56641;939.1884;;;;
2023/04/27 08:34:26;;;;;;;4.2;3.5;;;;;;;10.17;86.25586;939.158;;;;
2023/04/27 08:36:55;;;;;;;6.2;3.6;;;;;;;10.53;87.40137;939.0937;;;;
2023/04/27 08:39:25;;;;;;;3.6;3.3;;;;;;;10.84;85.32715;939.1953;;;;
2023/04/27 08:41:50;;;;;;;3.8;3;;;;;;;10.87;82.07617;939.1774;;;;
2023/04/27 08:44:15;;;;;;;5;2.7;;;;;;;10.86;80.81836;939.116;;;;
2023/04/27 08:46:40;;;;;;;3.2;2.7;;;;;;;10.79;79.80957;939.1468;;;;
2023/04/27 08:49:06;;;;;;;4.9;3.3;;;;;;;10.73;82.77148;939.0475;;;;
2023/04/27 08:51:33;;;;;;;4.7;3.7;;;;;;;10.56;83.1709;939.1601;;;;
2023/04/27 08:54:04;;;;;;;3.4;2.7;;;;;;;10.49;82.51758;939.1935;;;;
2023/04/27 08:56:33;;;;;;;7.5;3.3;;;;;;;10.75;84.2832;939.2101;;;;
2023/04/27 08:58:58;;;;;;;4.3;3.3;;;;;;;11.27;85.8125;939.1376;;;;
2023/04/27 09:01:27;;;;;;;4.5;3.3;;;;;;;11.99;83.42188;939.1379;;;;
2023/04/27 09:03:52;;;;;;;2.8;2.4;;;;;;;12.09;79.93457;939.1459;;;;
2023/04/27 09:06:21;;;;;;;4.2;3.6;;;;;;;11.94;78.38281;939.1448;;;;
2023/04/27 09:08:47;;;;;;;3.2;2.6;;;;;;;11.29;78.98828;939.1394;;;;
2023/04/27 09:11:12;;;;;;;3;2.5;;;;;;;11.25;81.55273;939.116;;;;
2023/04/27 09:13:38;;;;;;;4.6;2.8;;;;;;;11.87;81.90137;939.0592;;;;
2023/04/27 09:16:04;;;;;;;4.6;3.2;;;;;;;12.02;75.6709;939.1002;;;;
2023/04/27 09:18:32;;;;;;;6.6;4.9;;;;;;;12.21;77.66602;939.1273;;;;
2023/04/27 09:21:05;;;;;;;12.2;7.9;;;;;;;11.75;77.49219;939.1113;;;;
2023/04/27 09:23:34;;;;;;;10.6;6.9;;;;;;;11.59;79.29395;939.0748;;;;
2023/04/27 09:25:59;;;;;;;6.3;4.3;;;;;;;11.65;79.36328;939.058;;;;
2023/04/27 09:28:26;;;;;;;3.2;2.6;;;;;;;11.59;78.08105;939.0286;;;;
2023/04/27 09:30:52;;;;;;;16.4;9.1;;;;;;;11.4;77.79492;939.0078;;;;
2023/04/27 09:33:17;;;;;;;15.5;9.7;;;;;;;11.43;78.86426;938.9462;;;;
2023/04/27 09:35:44;;;;;;;6;5;;;;;;;11.23;78.77051;939.017;;;;
2023/04/27 09:38:09;;;;;;;2.5;2.3;;;;;;;11.08;79.58887;938.9835;;;;
2023/04/27 09:40:39;;;;;;;4.6;3.5;;;;;;;11.17;80.61133;938.9476;;;;
2023/04/27 09:43:02;;;;;;;2;1.8;;;;;;;11.44;79.67773;938.9247;;;;
2023/04/27 09:45:30;;;;;;;2.4;1.7;;;;;;;11.97;78.05762;938.968;;;;
2023/04/27 09:47:55;;;;;;;3.1;2.1;;;;;;;11.79;76.06836;938.9547;;;;
2023/04/27 09:50:22;;;;;;;2.2;2;;;;;;;12.29;78.84766;938.9164;;;;
2023/04/27 09:52:47;;;;;;;3.1;2.2;;;;;;;12.08;77.37793;938.8346;;;;
2023/04/27 09:55:15;;;;;;;3;2.3;;;;;;;11.92;79.92773;938.9222;;;;
2023/04/27 09:57:43;;;;;;;2.1;1.9;;;;;;;12.01;78.20313;938.933;;;;
2023/04/27 10:00:15;;;;;;;2.6;1.7;;;;;;;12.5;77.57813;938.8431;;;;
2023/04/27 10:02:38;;;;;;;2.3;2.1;;;;;;;12.75;77.85254;938.8856;;;;
2023/04/27 10:05:03;;;;;;;1.6;1.5;;;;;;;13.15;74.88184;938.7852;;;;
2023/04/27 10:07:30;;;;;;;1.6;1.5;;;;;;;13.51;71.94336;938.7562;;;;
2023/04/27 10:09:56;;;;;;;1.6;1.3;;;;;;;12.88;71.92969;938.7495;;;;
2023/04/27 10:12:22;;;;;;;1.4;1.3;;;;;;;13.24;72.9541;938.7009;;;;
2023/04/27 10:14:47;;;;;;;1.5;1.3;;;;;;;13.64;72.50488;938.7452;;;;
2023/04/27 10:17:16;;;;;;;1.6;1.2;;;;;;;14.09;71.01465;938.6301;;;;
2023/04/27 10:19:41;;;;;;;1.2;1.1;;;;;;;15.3;68.83301;938.5842;;;;
2023/04/27 10:22:12;;;;;;;1.4;1.2;;;;;;;16.13;64.77734;938.5711;;;;
2023/04/27 10:24:41;;;;;;;1.2;1.1;;;;;;;16.37;61.34082;938.5573;;;;
2023/04/27 10:27:06;;;;;;;1.4;1.2;;;;;;;16.75;60.83789;938.5372;;;;
2023/04/27 10:29:31;;;;;;;1.7;1.1;;;;;;;16.24;56.96191;938.5829;;;;
2023/04/27 10:31:58;;;;;;;1.8;1.2;;;;;;;15.29;61.08496;938.5499;;;;
2023/04/27 10:34:23;;;;;;;2.2;1.2;;;;;;;15.62;64.35645;938.49;;;;
2023/04/27 10:36:51;;;;;;;2;1.2;;;;;;;15.87;60.28906;938.4451;;;;
2023/04/27 10:39:17;;;;;;;1.7;1.3;;;;;;;15.99;59.86523;938.3909;;;;
2023/04/27 10:41:43;;;;;;;1.4;1.1;;;;;;;16.61;59.45313;938.3848;;;;
2023/04/27 10:44:08;;;;;;;1.1;1;;;;;;;16.59;54.87695;938.361;;;;
2023/04/27 10:46:38;;;;;;;1.3;1.2;;;;;;;17.39;55.95117;938.3641;;;;
2023/04/27 10:49:04;;;;;;;2.2;1.1;;;;;;;17.99;55.07617;938.3739;;;;
2023/04/27 10:51:29;;;;;;;1;1;;;;;;;18.39;52.12598;938.3538;;;;
2023/04/27 10:53:57;;;;;;;1.1;1;;;;;;;17.59;52.96094;938.2587;;;;
2023/04/27 10:56:23;;;;;;;1.3;1.1;;;;;;;17.72;53.76367;938.3134;;;;
2023/04/27 10:58:49;;;;;;;1.4;1;;;;;;;17.59;55.16504;938.2908;;;;
2023/04/27 11:01:14;;;;;;;0.9;0.9;;;;;;;17.43;53.625;938.3041;;;;
2023/04/27 11:03:45;;;;;;;0.7;0.7;;;;;;;17.54;55.39063;938.3499;;;;
2023/04/27 11:06:07;;;;;;;0.7;0.7;;;;;;;17.58;56.30176;938.37;;;;
2023/04/27 11:08:35;;;;;;;0.9;0.9;;;;;;;18.61;54.89648;938.3348;;;;
2023/04/27 11:10:57;;;;;;;1.1;0.9;;;;;;;18.46;55.44727;938.3382;;;;
2023/04/27 11:13:22;;;;;;;0.9;0.7;;;;;;;18.35;56.67773;938.3958;;;;
2023/04/27 11:15:50;;;;;;;1.6;1.1;;;;;;;18.51;57.18652;938.421;;;;
2023/04/27 11:18:17;;;;;;;1.4;1;;;;;;;18.42;55.31641;938.4233;;;;
2023/04/27 11:20:42;;;;;;;1.1;0.9;;;;;;;17.94;54.10547;938.4411;;;;
2023/04/27 11:23:11;;;;;;;0.9;0.7;;;;;;;17.67;54.25781;938.4146;;;;
2023/04/27 11:25:36;;;;;;;0.7;0.7;;;;;;;17.65;54.19727;938.4802;;;;
2023/04/27 11:28:03;;;;;;;0.8;0.7;;;;;;;17.7;52.75195;938.3992;;;;
2023/04/27 11:30:28;;;;;;;2.3;0.8;;;;;;;18.36;55.0166;938.3947;;;;
2023/04/27 11:32:56;;;;;;;0.7;0.7;;;;;;;18.98;53.80371;938.4236;;;;
2023/04/27 11:35:22;;;;;;;1.3;0.8;;;;;;;19.16;51.45996;938.4392;;;;
2023/04/27 11:37:49;;;;;;;2;1;;;;;;;18.82;52.03809;938.3055;;;;
2023/04/27 11:40:33;;;;;;;0.8;0.8;;;;;;;18.97;51.69434;938.3538;;;;
2023/04/27 11:42:57;;;;;;;0.9;0.5;;;;;;;20.06;47.02637;938.3231;;;;
2023/04/27 11:45:24;;;;;;;0.7;0.7;;;;;;;22.08;43.23242;938.3405;;;;
2023/04/27 11:47:49;;;;;;;1.6;0.8;;;;;;;22.51;43.98926;938.3081;;;;
2023/04/27 11:50:17;;;;;;;1;0.7;;;;;;;23.23;41.81641;938.3862;;;;
2023/04/27 11:52:42;;;;;;;0.6;0.6;;;;;;;23.76;40.34863;938.2566;;;;
2023/04/27 11:55:14;;;;;;;0.8;0.5;;;;;;;23.18;38.8623;938.2925;;;;
2023/04/27 11:57:36;;;;;;;1.5;0.8;;;;;;;23.25;38.4209;938.2969;;;;
2023/04/27 12:00:09;;;;;;;1.6;0.7;;;;;;;21.35;42.7168;938.2784;;;;
2023/04/27 12:02:41;;;;;;;1.2;0.6;;;;;;;21.46;43.14844;938.242;;;;
2023/04/27 12:05:14;;;;;;;0.9;0.6;;;;;;;21.13;44.36719;938.2595;;;;
2023/04/27 12:07:38;;;;;;;0.4;0.4;;;;;;;21.04;43.49414;938.3142;;;;
2023/04/27 12:10:13;;;;;;;0.6;0.3;;;;;;;21.03;42.70801;938.2742;;;;
2023/04/27 12:12:37;;;;;;;0.7;0.6;;;;;;;20.99;45.91992;938.2946;;;;
2023/04/27 12:15:03;;;;;;;0.5;0.5;;;;;;;19.73;43.79688;938.1711;;;;
2023/04/27 12:17:29;;;;;;;0.4;0.4;;;;;;;19.32;46.0625;938.2386;;;;
2023/04/27 12:19:57;;;;;;;0.5;0.5;;;;;;;18.85;47.96777;938.3144;;;;
2023/04/27 12:22:23;;;;;;;0.7;0.7;;;;;;;18.43;50.77051;938.329;;;;
2023/04/27 12:24:49;;;;;;;0.6;0.6;;;;;;;18.78;49.1582;938.3627;;;;
2023/04/27 12:27:14;;;;;;;0.6;0.6;;;;;;;19.19;48.72754;938.3627;;;;
2023/04/27 12:29:44;;;;;;;0.5;0.5;;;;;;;19.01;50.52344;938.3011;;;;
2023/04/27 12:32:09;;;;;;;1.3;0.7;;;;;;;19.22;49.18457;938.3655;;;;
2023/04/27 12:34:38;;;;;;;0.8;0.8;;;;;;;18.66;50.32031;938.3563;;;;
2023/04/27 12:37:03;;;;;;;0.7;0.7;;;;;;;19.02;48.77832;938.3036;;;;
2023/04/27 12:39:33;;;;;;;0.7;0.7;;;;;;;19.38;49.9248;938.272;;;;
2023/04/27 12:42:01;;;;;;;0.8;0.7;;;;;;;19.71;48.89063;938.3057;;;;
2023/04/27 12:44:25;;;;;;;1.6;0.7;;;;;;;18.98;51.12598;938.3324;;;;
2023/04/27 12:46:56;;;;;;;0.9;0.8;;;;;;;18.31;53.67383;938.2813;;;;
2023/04/27 12:49:26;;;;;;;0.6;0.6;;;;;;;18.5;53.01074;938.2455;;;;
2023/04/27 12:51:51;;;;;;;1;0.9;;;;;;;18.63;53.48145;938.2689;;;;
2023/04/27 12:54:19;;;;;;;0.6;0.6;;;;;;;18.41;53.05859;938.2139;;;;
2023/04/27 12:56:44;;;;;;;0.4;0.4;;;;;;;18.56;52.2627;938.1893;;;;
2023/04/27 12:59:10;;;;;;;1.3;0.6;;;;;;;18.54;51.43359;938.1381;;;;
2023/04/27 13:01:35;;;;;;;1.2;0.7;;;;;;;18.72;51.78125;938.1139;;;;
2023/04/27 13:04:02;;;;;;;0.9;0.9;;;;;;;18.28;54.80957;938.1383;;;;
2023/04/27 13:06:27;;;;;;;0.9;0.8;;;;;;;18.11;54.05664;938.1125;;;;
2023/04/27 13:08:55;;;;;;;1.1;0.8;;;;;;;17.86;55.16406;938.1638;;;;
2023/04/27 13:11:20;;;;;;;1.6;1.2;;;;;;;17.81;56.15625;938.1844;;;;
2023/04/27 13:13:46;;;;;;;1.3;1.1;;;;;;;17.76;56.69434;938.1959;;;;
2023/04/27 13:16:12;;;;;;;1.4;0.9;;;;;;;17.5;58.12402;938.1443;;;;
2023/04/27 13:18:37;;;;;;;1.7;0.9;;;;;;;17.64;57.93262;938.1286;;;;
2023/04/27 13:21:04;;;;;;;1.6;1;;;;;;;17.84;58.37793;938.1149;;;;
2023/04/27 13:23:29;;;;;;;1.1;1.1;;;;;;;17.61;56.82715;938.1278;;;;
2023/04/27 13:25:56;;;;;;;1.3;1.1;;;;;;;17.36;60.59863;938.103;;;;
2023/04/27 13:28:21;;;;;;;1.6;1.3;;;;;;;17.54;59.12695;938.0631;;;;
2023/04/27 13:30:48;;;;;;;1.3;1.1;;;;;;;17.79;57.94141;938.0488;;;;
2023/04/27 13:33:13;;;;;;;1.5;1.2;;;;;;;17.54;57.88477;938.0463;;;;
2023/04/27 13:35:43;;;;;;;1.3;1.2;;;;;;;17.51;58.26465;937.9558;;;;
2023/04/27 13:38:08;;;;;;;2.2;1.2;;;;;;;17.5;58.63477;937.9391;;;;
2023/04/27 13:40:36;;;;;;;1.7;1.4;;;;;;;17.57;58.15527;937.9781;;;;
2023/04/27 13:43:01;;;;;;;1.9;0.9;;;;;;;17.91;57.0166;937.9252;;;;
2023/04/27 13:45:31;;;;;;;1.6;1;;;;;;;17.81;56.27246;937.9436;;;;
2023/04/27 13:48:00;;;;;;;2.1;1.2;;;;;;;17.83;56.01953;937.9266;;;;
2023/04/27 13:50:25;;;;;;;1.7;1.2;;;;;;;17.94;55.80176;937.8873;;;;
2023/04/27 13:52:53;;;;;;;2.5;1.1;;;;;;;17.68;57.06738;937.9261;;;;
2023/04/27 13:55:18;;;;;;;1.7;1.2;;;;;;;17.3;58.48047;937.8811;;;;
2023/04/27 13:57:44;;;;;;;1.7;1.2;;;;;;;16.87;60.93652;937.9052;;;;
2023/04/27 14:00:10;;;;;;;1.6;1.3;;;;;;;16.85;59.13867;937.87;;;;
2023/04/27 14:02:38;;;;;;;1.8;1.2;;;;;;;16.78;60.91211;937.8395;;;;
2023/04/27 14:05:03;;;;;;;0.9;0.9;;;;;;;17.1;59.98242;937.9196;;;;
2023/04/27 14:07:29;;;;;;;1.2;1.1;;;;;;;17.16;59.14355;937.8702;;;;
2023/04/27 14:09:53;;;;;;;1.4;1.2;;;;;;;16.95;59.88184;937.8145;;;;
2023/04/27 14:12:20;;;;;;;1.9;1.4;;;;;;;17.21;59.61523;937.8138;;;;
2023/04/27 14:14:45;;;;;;;1.1;1;;;;;;;17.16;59.45801;937.7849;;;;
2023/04/27 14:17:19;;;;;;;2.2;1;;;;;;;17.12;58.81445;937.7744;;;;
2023/04/27 14:19:49;;;;;;;1.5;1.1;;;;;;;17.14;58.44727;937.6855;;;;
2023/04/27 14:22:19;;;;;;;1.3;1.2;;;;;;;17.11;59.25391;937.6644;;;;
2023/04/27 14:24:44;;;;;;;2.9;1.3;;;;;;;16.73;62.51563;937.6166;;;;
2023/04/27 14:27:12;;;;;;;1.1;0.9;;;;;;;16.57;62.26172;937.5822;;;;
2023/04/27 14:29:37;;;;;;;1.1;1;;;;;;;16.73;60.98633;937.6376;;;;
2023/04/27 14:32:07;;;;;;;2.7;1.1;;;;;;;16.9;59.3418;937.6898;;;;
2023/04/27 14:34:31;;;;;;;1.5;1;;;;;;;16.96;60.29883;937.6947;;;;
2023/04/27 14:36:59;;;;;;;1.1;1;;;;;;;17.1;58.83594;937.6853;;;;
2023/04/27 14:39:26;;;;;;;1.4;1;;;;;;;17.25;58.46289;937.7104;;;;
2023/04/27 14:41:49;;;;;;;2;1;;;;;;;17.24;57.69531;937.5898;;;;
2023/04/27 14:44:18;;;;;;;1.1;1;;;;;;;17.36;57.72168;937.6345;;;;
2023/04/27 14:46:43;;;;;;;1;0.9;;;;;;;17.43;57.51074;937.652;;;;
2023/04/27 14:49:10;;;;;;;2.3;1;;;;;;;17.36;56.5625;937.5846;;;;
2023/04/27 14:51:35;;;;;;;1.3;0.9;;;;;;;17.28;58.61621;937.5708;;;;